Time;durP1;ratioP1;P1;durP2;ratioP2;P2;SDS_P1;SDS_P2;PMS_P1;PMS_P2;Temp;Humidity;BMP_temperature;BMP_pressure;BME280_temperature;BME280_humidity;BME280_pressure;Samples;Min_cycle;Max_cycle;Signal;HPM_P1;HPM_P2
2022/08/19 00:08:41;;;;;;;9.65;4.72;;;;;;;26.42;49.76;99980.44;18631256;31;20135;-56
2022/08/19 00:18:46;;;;;;;10.95;5.55;;;;;;;26.40;50.04;99984.22;18630459;31;20136;-56
2022/08/19 00:28:49;;;;;;;10.07;5.30;;;;;;;26.40;50.74;99979.72;18630710;31;20095;-56
2022/08/19 00:38:54;;;;;;;10.90;5.60;;;;;;;26.30;50.83;99982.22;18630075;31;20089;-56
2022/08/19 00:48:58;;;;;;;9.90;4.93;;;;;;;26.36;50.80;99980.06;18630933;31;20104;-56
2022/08/19 00:59:08;;;;;;;10.60;5.53;;;;;;;26.20;51.50;99980.38;18629792;31;20092;-55
2022/08/19 01:09:11;;;;;;;9.67;5.40;;;;;;;26.11;51.25;99966.69;18614600;31;20376;-56
2022/08/19 01:19:20;;;;;;;10.02;5.65;;;;;;;25.99;51.54;99968.44;18628899;31;20092;-56
2022/08/19 01:29:25;;;;;;;11.93;5.57;;;;;;;25.79;51.97;99961.06;18629062;31;20084;-56
2022/08/19 01:39:29;;;;;;;10.35;6.00;;;;;;;25.67;52.09;99969.00;18629711;31;20109;-56
2022/08/19 01:49:33;;;;;;;11.82;6.18;;;;;;;25.49;52.78;99960.47;18629445;31;20132;-56
2022/08/19 01:59:37;;;;;;;11.40;6.28;;;;;;;25.38;53.30;99957.72;18629174;31;20402;-56
2022/08/19 02:09:42;;;;;;;11.52;6.18;;;;;;;25.25;53.44;99953.25;18627889;31;20099;-56
2022/08/19 02:19:45;;;;;;;11.45;5.57;;;;;;;25.06;54.09;99932.34;18626382;31;20122;-56
2022/08/19 02:29:51;;;;;;;11.18;6.35;;;;;;;25.04;53.82;99918.25;18626287;31;20373;-56
2022/08/19 02:39:54;;;;;;;12.27;6.25;;;;;;;24.96;54.35;99926.81;18618089;31;20520;-56
2022/08/19 02:49:59;;;;;;;12.23;6.60;;;;;;;24.80;54.83;99911.00;18627420;31;20112;-56
2022/08/19 03:00:03;;;;;;;11.80;6.70;;;;;;;24.67;55.07;99929.66;18625971;31;20112;-56
2022/08/19 03:10:09;;;;;;;10.93;5.72;;;;;;;24.22;56.48;99936.22;18626618;31;20099;-56
2022/08/19 03:20:12;;;;;;;12.07;6.72;;;;;;;24.55;55.26;99970.50;18624659;31;20100;-56
2022/08/19 03:30:17;;;;;;;11.27;5.85;;;;;;;24.46;55.47;99962.16;18626746;31;20129;-56
2022/08/19 03:40:26;;;;;;;11.20;6.17;;;;;;;24.60;54.83;99982.56;18632207;31;20096;-56
2022/08/19 03:50:30;;;;;;;11.55;6.20;;;;;;;24.49;55.14;99982.44;18631879;31;20115;-56
2022/08/19 04:00:33;;;;;;;11.30;6.00;;;;;;;24.24;55.25;99987.63;18605171;31;20164;-56
2022/08/19 04:10:40;;;;;;;11.23;6.18;;;;;;;24.30;55.80;99972.19;18632222;31;20406;-56
2022/08/19 04:20:44;;;;;;;12.02;5.93;;;;;;;24.95;53.72;99986.50;18630639;31;20087;-56
2022/08/19 04:30:50;;;;;;;12.02;5.80;;;;;;;24.80;54.44;99993.72;18597501;31;20103;-56
2022/08/19 04:51:15;;;;;;;12.13;6.33;;;;;;;25.17;54.51;99998.34;18564870;32;20519;-56
2022/08/19 05:01:20;;;;;;;10.43;6.00;;;;;;;25.25;54.44;100006.69;18564273;32;20482;-56
2022/08/19 05:11:29;;;;;;;10.55;5.25;;;;;;;25.61;53.93;100013.06;18549619;32;20111;-56
2022/08/19 05:31:56;;;;;;;10.85;5.28;;;;;;;26.02;53.24;99994.13;18563551;32;20106;-56
2022/08/19 05:42:01;;;;;;;10.43;4.90;;;;;;;26.65;48.67;100011.78;18563071;32;20100;-56
2022/08/19 05:52:07;;;;;;;9.73;4.95;;;;;;;27.40;48.68;100001.56;18548296;32;20193;-56
2022/08/19 06:02:11;;;;;;;14.98;5.20;;;;;;;27.97;45.29;100018.47;18562651;32;20353;-56
2022/08/19 06:12:15;;;;;;;9.15;4.50;;;;;;;28.84;43.46;100013.16;18563179;32;20107;-56
2022/08/19 06:22:21;;;;;;;11.60;4.50;;;;;;;28.93;41.92;100015.03;18576214;31;20115;-56
2022/08/19 06:32:25;;;;;;;8.25;4.28;;;;;;;29.68;41.22;100015.81;18577389;31;20539;-56
2022/08/19 06:42:29;;;;;;;9.25;4.35;;;;;;;29.89;39.85;100023.78;18590663;31;20114;-56
2022/08/19 06:52:35;;;;;;;9.07;4.07;;;;;;;30.35;39.56;100007.97;18622204;31;20103;-56
2022/08/19 07:02:41;;;;;;;9.95;4.05;;;;;;;30.90;38.21;100003.84;18559065;32;20085;-56
2022/08/19 07:12:54;;;;;;;9.57;4.55;;;;;;;31.23;37.68;100008.84;18553757;31;156172;-56
2022/08/19 07:22:57;;;;;;;9.25;4.18;;;;;;;32.50;35.47;99999.13;18559093;31;20118;-56
2022/08/19 07:33:03;;;;;;;9.43;3.85;;;;;;;32.77;34.62;100010.81;18559144;32;20114;-56
2022/08/19 07:43:09;;;;;;;8.57;3.62;;;;;;;33.37;33.32;100026.38;18564235;31;20100;-56
2022/08/19 07:53:18;;;;;;;9.67;3.60;;;;;;;32.99;33.61;99996.97;18559797;31;20115;-56
2022/08/19 08:09:10;;;;;;;8.43;3.92;;;;;;;33.74;32.42;100001.69;18559225;31;20261;-56
2022/08/19 08:13:49;;;;;;;9.25;3.60;;;;;;;32.94;32.58;100000.16;18576032;31;20110;-56
2022/08/19 08:24:06;;;;;;;9.07;3.60;;;;;;;33.08;31.91;99980.63;18594369;31;20096;-56
2022/08/19 08:34:12;;;;;;;6.55;3.15;;;;;;;33.65;31.16;99991.00;18595176;31;20091;-56
2022/08/19 08:44:19;;;;;;;8.20;3.33;;;;;;;33.61;30.09;99995.91;18601532;31;20462;-56
2022/08/19 08:54:30;;;;;;;8.03;3.23;;;;;;;34.61;29.11;100002.31;18564343;32;20116;-56
2022/08/19 09:04:37;;;;;;;8.73;3.55;;;;;;;34.98;27.87;99992.75;18563182;32;20154;-56
2022/08/19 09:14:45;;;;;;;5.50;2.60;;;;;;;34.27;29.15;99960.00;18549264;32;20089;-56
2022/08/19 09:24:54;;;;;;;6.90;3.25;;;;;;;35.66;27.16;99958.97;18571238;31;20388;-56
2022/08/19 09:35:00;;;;;;;6.57;2.92;;;;;;;35.71;28.02;99959.28;18561458;32;20253;-56
2022/08/19 09:45:06;;;;;;;7.27;3.27;;;;;;;35.25;26.24;99949.16;18565643;31;20120;-57
2022/08/19 09:55:15;;;;;;;5.32;2.72;;;;;;;35.34;26.23;99939.09;18548333;32;20101;-56
2022/08/19 10:15:53;;;;;;;6.30;3.28;;;;;;;35.99;25.58;99907.16;18355477;32;20109;-57
2022/08/19 10:26:01;;;;;;;6.03;3.08;;;;;;;35.95;25.09;99893.09;18356509;32;20476;-56
2022/08/19 10:36:08;;;;;;;9.32;3.72;;;;;;;36.58;25.11;99900.19;18335180;32;20144;-56
2022/08/19 10:46:13;;;;;;;8.43;3.53;;;;;;;36.82;24.45;99878.34;18420109;31;20704;-56
2022/08/19 11:06:43;;;;;;;6.25;3.10;;;;;;;38.80;22.01;99882.53;18556341;31;20111;-56
2022/08/19 11:16:48;;;;;;;6.50;3.42;;;;;;;39.06;20.84;99871.97;18559701;32;20145;-56
2022/08/19 11:26:56;;;;;;;8.57;3.20;;;;;;;39.42;21.55;99873.56;18559599;31;20129;-56
2022/08/19 11:37:03;;;;;;;16.80;3.90;;;;;;;38.44;21.99;99878.09;18558274;31;20104;-56
2022/08/19 11:47:06;;;;;;;5.47;2.87;;;;;;;38.19;21.95;99855.94;18558295;32;20103;-56
2022/08/19 11:57:14;;;;;;;6.68;2.80;;;;;;;39.88;20.20;99865.63;18574594;31;20144;-57
2022/08/19 12:07:18;;;;;;;6.72;2.55;;;;;;;40.22;20.18;99842.72;18599208;31;20152;-57
2022/08/19 12:17:22;;;;;;;8.55;3.00;;;;;;;40.53;20.59;99845.78;18616359;31;20149;-56
2022/08/19 12:27:26;;;;;;;6.55;3.15;;;;;;;39.52;20.03;99832.19;18630669;31;20167;-56
2022/08/19 12:37:44;;;;;;;7.95;3.30;;;;;;;39.26;19.96;99829.19;18630237;31;20440;-56
2022/08/19 12:47:59;;;;;;;8.82;3.60;;;;;;;39.27;20.44;99841.78;18614683;31;20085;-56
2022/08/19 12:58:06;;;;;;;8.63;2.85;;;;;;;39.77;19.90;99828.84;18571307;31;20106;-56
2022/08/19 13:08:11;;;;;;;7.75;3.25;;;;;;;39.53;20.05;99810.16;18563578;32;20104;-56
2022/08/19 13:18:15;;;;;;;9.63;3.55;;;;;;;40.29;19.55;99798.09;18563578;32;20114;-56
2022/08/19 13:28:19;;;;;;;10.05;5.47;;;;;;;40.21;18.40;99794.53;18563053;31;20101;-56
2022/08/19 13:38:32;;;;;;;9.88;4.62;;;;;;;39.85;19.06;99803.22;18547761;31;20092;-57
2022/08/19 13:48:40;;;;;;;9.70;4.85;;;;;;;39.67;19.27;99786.41;18552470;32;20093;-57
2022/08/19 13:58:53;;;;;;;11.63;4.72;;;;;;;39.75;21.19;99776.34;18562226;32;20111;-56
2022/08/19 14:08:56;;;;;;;11.90;5.78;;;;;;;40.11;19.84;99779.66;18562578;32;20131;-56
2022/08/19 14:19:01;;;;;;;12.80;4.47;;;;;;;40.05;19.23;99759.50;18560834;31;20126;-56
2022/08/19 14:29:04;;;;;;;8.63;3.33;;;;;;;39.53;21.20;99768.34;18562528;31;20115;-55
2022/08/19 14:39:10;;;;;;;7.95;2.97;;;;;;;38.40;23.35;99768.62;18624096;31;20140;-58
2022/08/19 14:49:14;;;;;;;6.90;2.60;;;;;;;37.22;25.35;99772.75;18555781;31;20092;-55
2022/08/19 14:59:19;;;;;;;9.40;2.95;;;;;;;36.47;26.95;99790.06;18584481;31;20140;-56
2022/08/19 15:09:22;;;;;;;6.68;2.83;;;;;;;36.18;27.65;99797.16;18581683;31;20174;-56
2022/08/19 15:19:27;;;;;;;8.45;2.75;;;;;;;35.37;28.31;99822.09;18591213;31;20095;-54
2022/08/19 15:29:30;;;;;;;9.32;2.10;;;;;;;34.79;28.77;99831.38;18578442;31;20108;-54
2022/08/19 15:39:35;;;;;;;5.72;1.77;;;;;;;34.29;27.48;99872.16;18567829;31;20096;-55
2022/08/19 15:49:38;;;;;;;5.28;1.33;;;;;;;34.24;26.54;99876.38;18544774;32;20376;-55
2022/08/19 16:10:07;;;;;;;8.10;1.23;;;;;;;33.55;25.85;99843.19;18556213;31;20112;-57
2022/08/19 16:20:31;;;;;;;8.00;1.87;;;;;;;33.47;26.13;99810.72;18554980;32;20100;-56
2022/08/19 16:30:39;;;;;;;10.30;1.70;;;;;;;32.65;27.78;99823.78;18555820;32;20428;-56
2022/08/19 16:40:44;;;;;;;13.10;2.20;;;;;;;32.28;28.57;99805.19;18575975;31;20103;-56
2022/08/19 16:50:49;;;;;;;8.10;1.87;;;;;;;33.06;27.84;99846.63;18608007;31;20164;-56
2022/08/19 17:00:54;;;;;;;7.30;1.65;;;;;;;33.26;28.21;99873.38;18616013;31;20426;-56
2022/08/19 17:10:58;;;;;;;8.10;1.50;;;;;;;33.13;29.50;99936.88;18590464;31;20084;-55
2022/08/19 17:21:22;;;;;;;8.27;1.52;;;;;;;32.95;28.35;99947.78;18564629;31;20095;-56
2022/08/19 17:31:27;;;;;;;5.22;1.52;;;;;;;32.76;28.70;100003.72;18563891;32;20092;-56
2022/08/19 17:41:33;;;;;;;5.87;1.85;;;;;;;32.77;28.80;99972.13;18548752;31;20115;-55
2022/08/19 17:51:40;;;;;;;6.03;2.15;;;;;;;32.60;29.13;99892.81;18562735;32;20141;-56
2022/08/19 18:01:46;;;;;;;9.90;2.17;;;;;;;32.36;29.43;99870.91;18563557;32;20152;-55
2022/08/19 18:11:58;;;;;;;12.45;2.58;;;;;;;31.99;29.99;99836.88;18562739;31;20432;-55
2022/08/19 18:22:03;;;;;;;8.68;2.20;;;;;;;31.51;30.78;99820.09;18596711;31;20136;-56
2022/08/19 18:32:11;;;;;;;8.70;2.10;;;;;;;30.92;31.85;99833.91;18582109;31;20111;-56
2022/08/19 18:52:37;;;;;;;6.35;1.77;;;;;;;31.36;31.79;99968.09;18579998;31;20092;-56
2022/08/19 19:02:44;;;;;;;8.07;1.95;;;;;;;31.46;31.64;100035.44;18560030;32;20096;-56
2022/08/19 19:12:48;;;;;;;9.88;2.60;;;;;;;31.14;32.10;100062.62;18560216;32;20114;-57
2022/08/19 19:22:53;;;;;;;7.80;2.50;;;;;;;30.70;33.67;100092.78;18545183;32;20096;-56
2022/08/19 19:33:00;;;;;;;9.65;3.08;;;;;;;30.53;35.16;100072.72;18559157;32;20096;-56
2022/08/19 19:43:05;;;;;;;6.85;2.87;;;;;;;30.35;36.96;100042.97;18544989;31;20088;-56
2022/08/19 19:53:08;;;;;;;10.25;2.28;;;;;;;30.04;36.96;100003.53;18567297;31;20114;-56
2022/08/19 20:03:12;;;;;;;9.48;2.33;;;;;;;29.73;37.46;99989.31;18558069;31;20107;-56
2022/08/19 20:13:16;;;;;;;13.05;2.58;;;;;;;29.54;39.98;100000.91;18578660;31;20167;-57
2022/08/19 20:23:22;;;;;;;17.27;4.25;;;;;;;28.64;47.33;100012.97;18559242;31;20093;-57
2022/08/19 20:33:26;;;;;;;11.05;2.80;;;;;;;27.68;54.03;99994.00;18614137;31;20415;-55
2022/08/19 20:43:31;;;;;;;11.02;3.05;;;;;;;26.78;55.69;100223.22;18630366;31;20087;-55
2022/08/19 20:53:34;;;;;;;10.50;4.03;;;;;;;26.12;57.45;100229.63;18630145;31;20156;-56
2022/08/19 21:03:41;;;;;;;10.65;4.28;;;;;;;25.65;62.15;100288.97;18629505;31;20104;-56
2022/08/19 21:13:45;;;;;;;11.02;5.05;;;;;;;25.38;65.85;100297.00;18584417;31;20132;-56
2022/08/19 21:23:50;;;;;;;13.50;4.65;;;;;;;25.03;67.28;100269.84;18580296;31;20622;-56
2022/08/19 21:33:53;;;;;;;11.70;4.95;;;;;;;24.78;69.21;100227.88;18591466;31;20092;-56
2022/08/19 21:43:57;;;;;;;11.70;5.18;;;;;;;24.78;69.77;100211.84;18600686;31;20096;-57
2022/08/19 21:54:01;;;;;;;12.20;4.82;;;;;;;24.99;68.43;100150.84;18577036;31;20412;-57
2022/08/19 22:04:06;;;;;;;10.68;4.57;;;;;;;24.96;69.50;100115.50;18582506;31;20096;-56
2022/08/19 22:14:09;;;;;;;11.40;4.45;;;;;;;25.02;69.11;100080.38;18576015;31;20123;-57
2022/08/19 22:24:13;;;;;;;12.82;5.37;;;;;;;25.18;67.61;100053.47;18625840;31;20107;-56
2022/08/19 22:34:17;;;;;;;10.57;4.47;;;;;;;24.21;72.18;100043.84;18627283;31;20112;-56
2022/08/19 22:44:22;;;;;;;12.40;5.72;;;;;;;24.02;73.78;100037.97;18626846;31;20091;-56
2022/08/19 22:54:25;;;;;;;14.73;5.60;;;;;;;23.95;74.70;99993.03;18592847;31;20107;-56
2022/08/19 23:04:30;;;;;;;13.38;5.45;;;;;;;24.67;71.83;99953.69;18560702;32;20092;-56
2022/08/19 23:14:35;;;;;;;10.35;5.03;;;;;;;24.12;73.35;99945.78;18560068;32;20101;-56
2022/08/19 23:24:39;;;;;;;10.02;4.82;;;;;;;24.48;72.33;99924.72;18559668;32;20076;-56
2022/08/19 23:34:43;;;;;;;8.70;4.20;;;;;;;24.70;71.76;99910.75;18559193;32;20096;-56
2022/08/19 23:44:47;;;;;;;11.82;4.72;;;;;;;24.76;70.53;99920.16;18558745;32;20387;-56
2022/08/19 23:54:54;;;;;;;11.55;5.20;;;;;;;23.81;74.01;99947.78;18566778;32;20766;-56
